Baken-Pakete - Kartenansicht · Info · Telemetrie · Wetter · Rohdaten · Status · Baken · Mitteilungen · Nachrichten · durchsuchen · bewegend · Mein Benutzerkonto
Absenderrufzeichen
Zeige:

Lade beacon Pakete...

Pakete von APRS Baken werden für 14 Tage gespeichert. Es ist möglich bei der Suche einen Platzhalter (*?) nach dem Präfix zu verwenden.

2019-05-25 01:52:08 EDT: II0US>CQ: US6· të ø Ä╣+
2019-05-25 01:52:09 EDT: II0US>CQ: US6û t‰ › $º+
2019-05-25 01:52:09 EDT: IZ4EFV>ID: IZ4EFV/R
2019-05-25 01:52:09 EDT: II0US>CQ: US6ü t‰ › ºº+
2019-05-25 01:52:10 EDT: II0US>CQ: US6² të ø P╗+
2019-05-25 01:52:10 EDT: WHTNY>BEACON: KD5DMT-5 APRS Digipeater
2019-05-25 01:52:10 EDT: II0US>CQ: US6■ të ø µ╗+
2019-05-25 01:52:10 EDT: II0US>CQ: US6ÿ t‰ › |Œ+
2019-05-25 01:52:10 EDT: II0US>CQ: US6
2019-05-25 01:52:11 EDT: II0US>CQ: US6 t‰ › šœ+
2019-05-25 01:51:46 EDT: WX5II-2>ID: WX5II-2/R
2019-05-25 01:51:47 EDT: 1>ID: Network Node
2019-05-25 01:51:47 EDT: N6ROR-10>BEACON: Julian Ca.APRS Digi, A service of ROARS
2019-05-25 01:51:47 EDT: LU9HGS-4>ID: LU9HGS-4 Cordoba - Argentina
2019-05-25 01:51:49 EDT: HG8PKU-3>UIDIGI: UIDIGI 1.9
2019-05-25 01:51:52 EDT: SK6NL-2>ID: SK6NL-2/R SK6NL-2/D SK6NL-1/B
2019-05-25 01:52:01 EDT: W6PKT-4>BEACON: Pratt Mtn,Garberville, Please Google "NORCAL APRS" for latest settings
2019-05-25 01:52:05 EDT: XE3I-3>ID: XE3I/R
2019-05-25 01:52:09 EDT: YUCCA>BEACON: YUCCA/W6BA APRS DIGI YUCCA VALLEY
2019-05-25 01:52:17 EDT: IZ4EFV-4>ID: IZ4EFV/R
2019-05-25 01:52:12 EDT: II0US>CQ: US6 të ø È¥+
2019-05-25 01:52:12 EDT: II0US>CQ: US6 të ø j┐+
2019-05-25 01:52:12 EDT: YM4KFE-3>BEACON: www.FARAD.org.tr
2019-05-25 01:52:12 EDT: II0US>CQ: US6 të ø
2019-05-25 01:52:12 EDT: II0US>CQ: US6 të ø û└+
2019-05-25 01:52:18 EDT: N3KTX-3>BEACON: MasonDixon A.P.R.S. Group at 146.895- with IRLP 7070
2019-05-25 01:52:19 EDT: 9A3XK>BEACON: CRLNet.108 - SysOp 9a3XK & 9a7kxp-Internet via DJWIRELES http://djw.hr/
2019-05-25 01:52:22 EDT: YM4KFE-3>BEACON: YM4KFE 439.375MHz / T88.5 / -7.600
2019-05-25 01:52:23 EDT: W7MOT-3>BEACON: aprs w7mot-3 White Tanks, AZ
2019-05-25 01:52:28 EDT: W6SCE-10>BEACON: WIDE2-2 is best path in SoCal
2019-05-25 01:52:28 EDT: 9A3XK>BEACON: Power 9W Gain 3dB Height 240m Ant omni
2019-05-25 01:52:32 EDT: VE3BLZ>UIDIGI: UIDIGI 1.9
2019-05-25 01:52:34 EDT: KB8UVN-7>ID: Network node (JTSW1)
2019-05-25 01:52:36 EDT: II0US>CQ: US6 të 8¡
2019-05-25 01:52:40 EDT: IR5AM>UIDIGI: UIDIGI 1.9
2019-05-25 01:52:42 EDT: EB1IVY>ID: EB1IVY/R
2019-05-25 01:52:43 EDT: N6UTC-5>ID: N6UTC-5/R W0LVES/D N6UTC-3/G N6UTC-1/B
2019-05-25 01:52:43 EDT: PP5JR-15>UIDIGI: UIDIGI 1.9
2019-05-25 01:52:45 EDT: VE7CWD>BEACON: Colwood EOC VE7CWD
2019-05-25 01:52:48 EDT: OCNSID>BEACON: <UI>:T#867,0,0,121,121,136,00101100
2019-05-25 01:52:17 EDT: W1EMA-1>BEACON: Aborn Hill, Knox, ME
2019-05-25 01:52:24 EDT: VE3LPM>BEACON: KITCHENER APRS+WX DIGI
2019-05-25 01:52:33 EDT: VE3ORC-4>BEACON: Next Meeting March 13, 2019 1900 hrs
2019-05-25 01:52:33 EDT: KS0SA-15>ID: KS0SA-15/R KC0BS-1/B
2019-05-25 01:52:40 EDT: N7JJY-6>BEACON: TESTING PATH TO GILLETTE
2019-05-25 01:52:43 EDT: N9BCP-6>ID: Network Node (NBLEOC)
2019-05-25 01:52:45 EDT: KB3SVY-2>CQ: WEST VINCENT TWP EOC
2019-05-25 01:52:48 EDT: HEBOWX>BEACON: <UI>:T#359,0,0,123,116,130,10101101
2019-05-25 01:52:49 EDT: AI6MD-3>UIDIGI: UIDIGI 1.9
2019-05-25 01:52:54 EDT: W4DFU-8>ID: W4DFU-8 Network node (BPQ)
< vorhergehender
FAQ · Blog · Diskussionsgruppe · Link zu aprs.fi · AIS-Sites · Status des Servers · Datenbank Statistiken · Werbe auf aprs.fi · Technische Details · API · Änderungen · geplante Änderungen · Dank an · Nutzungsbedingungen · iPhone/iPad APRS